createdAt,value
2023-05-12T00:03:11.145Z,99.90
2023-05-12T00:08:13.231Z,99.90
2023-05-12T00:13:15.727Z,99.90
2023-05-12T00:18:18.069Z,99.90
2023-05-12T00:23:20.036Z,99.90
2023-05-12T00:28:22.101Z,99.90
2023-05-12T00:33:24.107Z,99.90
2023-05-12T00:38:26.215Z,99.90
2023-05-12T00:43:28.559Z,99.90
2023-05-12T00:48:31.202Z,99.90
2023-05-12T00:53:47.659Z,99.90
2023-05-12T00:58:50.140Z,99.90
2023-05-12T01:03:52.972Z,99.90
2023-05-12T01:08:55.832Z,99.90
2023-05-12T01:13:58.137Z,99.90
2023-05-12T01:19:02.130Z,99.90
2023-05-12T01:24:08.694Z,99.90
2023-05-12T01:29:11.907Z,99.90
2023-05-12T01:34:18.707Z,99.90
2023-05-12T01:39:24.078Z,99.90
2023-05-12T01:44:26.652Z,99.90
2023-05-12T01:49:28.967Z,99.90
2023-05-12T01:54:31.189Z,99.90
2023-05-12T01:59:33.250Z,99.90
2023-05-12T02:04:36.593Z,99.90
2023-05-12T02:09:39.220Z,99.90
2023-05-12T02:14:41.314Z,99.90
2023-05-12T02:19:43.619Z,99.90
2023-05-12T02:24:48.120Z,99.90
2023-05-12T02:29:50.137Z,99.90
2023-05-12T02:34:53.442Z,99.90
2023-05-12T02:39:55.574Z,99.90
2023-05-12T02:44:59.100Z,99.90
2023-05-12T02:50:01.317Z,99.90
2023-05-12T02:55:04.011Z,99.90
2023-05-12T03:00:06.950Z,99.90
2023-05-12T03:05:12.033Z,99.90
2023-05-12T03:10:14.081Z,99.90
2023-05-12T03:15:16.277Z,99.90
2023-05-12T03:20:19.230Z,99.90
2023-05-12T03:25:21.730Z,99.90
2023-05-12T03:30:23.740Z,99.90
2023-05-12T03:35:27.125Z,99.90
2023-05-12T03:40:29.286Z,99.90
2023-05-12T03:45:31.554Z,99.90
2023-05-12T03:50:33.711Z,99.90
2023-05-12T03:55:35.781Z,99.90
2023-05-12T04:00:39.268Z,99.90
2023-05-12T04:05:42.946Z,99.90
2023-05-12T04:10:44.975Z,99.90
2023-05-12T04:15:47.292Z,99.90
2023-05-12T04:20:49.301Z,99.90
2023-05-12T04:25:51.296Z,99.90
2023-05-12T04:30:53.563Z,99.90
2023-05-12T04:35:58.494Z,99.90
2023-05-12T04:41:01.176Z,99.90
2023-05-12T04:46:03.817Z,99.90
2023-05-12T04:51:06.158Z,99.90
2023-05-12T04:56:08.864Z,99.90
2023-05-12T05:01:13.822Z,99.90
2023-05-12T05:06:16.310Z,99.90
2023-05-12T05:11:19.113Z,99.90
2023-05-12T05:16:22.386Z,99.90
2023-05-12T05:21:25.552Z,99.90
2023-05-12T05:26:27.721Z,99.90
2023-05-12T05:31:29.808Z,99.90
2023-05-12T05:36:32.466Z,99.90
2023-05-12T05:41:34.585Z,99.90
2023-05-12T05:46:37.613Z,99.90
2023-05-12T05:51:39.694Z,99.90
2023-05-12T05:56:42.003Z,99.90
2023-05-12T06:01:45.144Z,99.90
2023-05-12T06:06:47.336Z,99.90
2023-05-12T06:11:49.457Z,99.90
2023-05-12T06:16:52.020Z,99.90
2023-05-12T06:21:54.098Z,99.90
2023-05-12T06:26:56.725Z,99.90
2023-05-12T06:31:59.305Z,99.90
2023-05-12T06:37:01.347Z,99.90
2023-05-12T06:42:04.126Z,99.90
2023-05-12T06:47:15.495Z,99.90
2023-05-12T06:52:17.587Z,99.90
2023-05-12T06:57:19.614Z,99.90
2023-05-12T07:02:21.852Z,99.90
2023-05-12T07:07:24.012Z,99.90
2023-05-12T07:12:26.038Z,99.90
2023-05-12T07:17:29.187Z,99.90
2023-05-12T07:22:32.699Z,99.90
2023-05-12T07:27:35.275Z,99.90
2023-05-12T07:32:37.393Z,99.90
2023-05-12T07:37:39.491Z,99.90
2023-05-12T07:42:41.568Z,99.90
2023-05-12T07:47:43.693Z,99.90
2023-05-12T07:52:52.826Z,99.90
2023-05-12T07:57:54.858Z,99.90
2023-05-12T08:02:57.062Z,99.90
2023-05-12T08:07:59.365Z,99.90
2023-05-12T08:13:01.448Z,99.90
2023-05-12T08:18:03.719Z,99.90
2023-05-12T08:23:05.814Z,99.90
2023-05-12T08:28:07.855Z,99.90
2023-05-12T08:33:10.028Z,99.90
2023-05-12T08:38:12.100Z,99.90
2023-05-12T08:43:30.213Z,99.90
2023-05-12T08:48:34.852Z,99.90
2023-05-12T08:53:38.717Z,99.90
2023-05-12T08:58:42.815Z,99.90
2023-05-12T09:03:45.016Z,99.90
2023-05-12T09:08:47.207Z,99.90
2023-05-12T09:14:03.108Z,99.90
2023-05-12T09:19:07.013Z,99.90
2023-05-12T09:24:09.430Z,99.90
2023-05-12T09:29:18.028Z,99.90
2023-05-12T09:34:35.859Z,99.90
2023-05-12T09:39:37.877Z,99.90
2023-05-12T09:44:41.367Z,71.90
2023-05-12T09:49:47.182Z,86.50
2023-05-12T09:54:49.256Z,92.20
2023-05-12T09:59:52.446Z,66.00
2023-05-12T10:05:00.631Z,58.20
2023-05-12T10:10:05.705Z,52.20
2023-05-12T10:15:09.701Z,50.40
2023-05-12T10:20:13.707Z,48.50
2023-05-12T10:25:18.110Z,45.10
2023-05-12T10:30:20.645Z,45.00
2023-05-12T10:35:33.936Z,43.30
2023-05-12T10:40:36.189Z,44.30
2023-05-12T10:45:38.255Z,41.60
2023-05-12T10:50:54.013Z,39.50
2023-05-12T10:55:57.181Z,35.50
2023-05-12T11:01:08.195Z,36.40
2023-05-12T11:06:19.432Z,33.70
2023-05-12T11:11:22.794Z,33.20
2023-05-12T11:16:25.867Z,32.80
2023-05-12T11:21:29.381Z,33.00
2023-05-12T11:26:31.509Z,34.00
2023-05-12T11:31:33.824Z,34.90
2023-05-12T11:36:39.634Z,32.50
2023-05-12T11:41:41.690Z,32.10
2023-05-12T11:47:00.945Z,32.10
2023-05-12T11:52:03.749Z,32.60
2023-05-12T11:57:06.112Z,33.20
2023-05-12T12:02:08.778Z,35.40
2023-05-12T12:07:11.114Z,34.90
2023-05-12T12:12:13.262Z,34.40
2023-05-12T12:17:15.304Z,34.30
2023-05-12T12:22:17.720Z,36.00
2023-05-12T12:27:19.845Z,36.40
2023-05-12T12:32:21.926Z,35.50
2023-05-12T12:37:23.928Z,35.90
2023-05-12T12:42:26.126Z,34.50
2023-05-12T12:47:28.227Z,34.50
2023-05-12T12:52:30.682Z,37.80
2023-05-12T12:57:32.767Z,39.20
2023-05-12T13:02:35.002Z,41.50
2023-05-12T13:07:37.661Z,42.90
2023-05-12T13:12:39.868Z,44.00
2023-05-12T13:17:41.974Z,44.70
2023-05-12T13:22:44.705Z,44.70
2023-05-12T13:27:46.928Z,44.40
2023-05-12T13:32:49.081Z,43.20
2023-05-12T13:37:51.193Z,39.20
2023-05-12T13:42:53.201Z,38.70
2023-05-12T13:47:55.350Z,37.80
2023-05-12T13:52:57.656Z,38.60
2023-05-12T13:57:59.894Z,38.90
2023-05-12T14:03:02.149Z,38.10
2023-05-12T14:08:04.486Z,35.70
2023-05-12T14:13:08.507Z,34.00
2023-05-12T14:18:10.933Z,34.10
2023-05-12T14:23:13.192Z,33.50
2023-05-12T14:28:15.568Z,34.20
2023-05-12T14:33:17.805Z,36.50
2023-05-12T14:38:19.865Z,38.30
2023-05-12T14:43:22.166Z,42.00
2023-05-12T14:48:26.292Z,43.90
2023-05-12T14:53:28.397Z,45.80
2023-05-12T14:58:31.077Z,46.70
2023-05-12T15:03:33.914Z,46.90
2023-05-12T15:08:36.074Z,46.60
2023-05-12T15:13:38.123Z,46.50
2023-05-12T15:18:40.251Z,42.70
2023-05-12T15:23:43.520Z,36.50
2023-05-12T15:28:45.718Z,34.80
2023-05-12T15:33:47.891Z,33.30
2023-05-12T15:38:49.918Z,31.80
2023-05-12T15:43:51.966Z,29.90
2023-05-12T15:48:54.111Z,29.90
2023-05-12T15:53:56.269Z,33.50
2023-05-12T15:58:58.297Z,35.60
2023-05-12T16:04:00.891Z,36.00
2023-05-12T16:09:03.164Z,34.50
2023-05-12T16:14:05.860Z,34.90
2023-05-12T16:19:08.210Z,32.50
2023-05-12T16:24:11.326Z,29.90
2023-05-12T16:29:13.920Z,29.30
2023-05-12T16:34:16.139Z,29.80
2023-05-12T16:39:18.371Z,29.70
2023-05-12T16:44:20.454Z,29.70
2023-05-12T16:49:23.160Z,30.00
2023-05-12T16:54:25.313Z,29.70
2023-05-12T16:59:27.304Z,29.70
2023-05-12T17:04:29.461Z,30.20
2023-05-12T17:09:31.496Z,31.10
2023-05-12T17:14:35.172Z,31.10
2023-05-12T17:19:42.024Z,33.10
2023-05-12T17:24:44.690Z,32.80
2023-05-12T17:29:46.808Z,33.80
2023-05-12T17:34:52.110Z,33.90
2023-05-12T17:39:54.277Z,33.10
2023-05-12T17:44:56.369Z,33.20
2023-05-12T17:49:58.548Z,33.60
2023-05-12T17:55:00.523Z,34.80
2023-05-12T18:00:07.380Z,36.50
2023-05-12T18:05:16.168Z,37.80
2023-05-12T18:10:19.306Z,39.10
2023-05-12T18:15:22.951Z,41.90
2023-05-12T18:20:27.894Z,44.50
2023-05-12T18:25:29.951Z,45.90
2023-05-12T18:30:32.346Z,47.10
2023-05-12T18:35:34.373Z,47.50
2023-05-12T18:40:36.463Z,48.90
2023-05-12T18:45:38.485Z,50.00
2023-05-12T18:50:40.658Z,51.00
2023-05-12T18:55:42.896Z,51.70
2023-05-12T19:00:45.466Z,52.50
2023-05-12T19:05:49.272Z,52.90
2023-05-12T19:10:51.862Z,54.30
2023-05-12T19:15:53.995Z,55.20
2023-05-12T19:20:56.144Z,57.10
2023-05-12T19:25:58.715Z,59.50
2023-05-12T19:31:00.965Z,66.00
2023-05-12T19:36:03.349Z,70.70
2023-05-12T19:41:05.430Z,78.30
2023-05-12T19:46:08.784Z,85.60
2023-05-12T19:51:11.168Z,92.10
2023-05-12T19:56:13.261Z,95.30
2023-05-12T20:01:15.453Z,98.70
2023-05-12T20:06:17.912Z,99.90
2023-05-12T20:11:20.133Z,99.90
2023-05-12T20:16:22.468Z,99.90
2023-05-12T20:21:24.651Z,99.90
2023-05-12T20:26:27.543Z,99.90
2023-05-12T20:31:29.921Z,99.90
2023-05-12T20:36:33.124Z,99.90
2023-05-12T20:41:35.324Z,99.90
2023-05-12T20:46:38.731Z,99.90
2023-05-12T20:51:41.015Z,99.90
2023-05-12T20:56:43.050Z,99.90
2023-05-12T21:01:45.153Z,99.90
2023-05-12T21:06:47.473Z,99.90
2023-05-12T21:11:49.467Z,99.90
2023-05-12T21:16:51.527Z,99.90
2023-05-12T21:21:53.520Z,99.90
2023-05-12T21:26:55.723Z,99.90
2023-05-12T21:31:58.026Z,99.90
2023-05-12T21:37:00.527Z,99.90
2023-05-12T21:42:02.711Z,99.90
2023-05-12T21:47:04.937Z,99.90
2023-05-12T21:52:06.980Z,99.90
2023-05-12T21:57:08.980Z,99.90
2023-05-12T22:02:11.223Z,99.90
2023-05-12T22:07:13.272Z,99.90
2023-05-12T22:12:18.547Z,99.90
2023-05-12T22:17:20.576Z,99.90
2023-05-12T22:22:22.630Z,99.90
2023-05-12T22:27:24.906Z,99.90
2023-05-12T22:32:27.012Z,99.90
2023-05-12T22:37:29.382Z,99.90
2023-05-12T22:42:31.396Z,99.90
2023-05-12T22:47:33.645Z,99.90
2023-05-12T22:52:35.760Z,99.90
2023-05-12T22:57:41.177Z,99.90
2023-05-12T23:02:43.346Z,99.90
2023-05-12T23:07:45.582Z,99.90
2023-05-12T23:12:47.562Z,99.90
2023-05-12T23:17:49.632Z,99.90
2023-05-12T23:22:51.689Z,99.90
2023-05-12T23:27:53.684Z,99.90
2023-05-12T23:32:56.011Z,99.90
2023-05-12T23:37:58.284Z,99.90
2023-05-12T23:43:00.375Z,99.90
2023-05-12T23:48:02.443Z,99.90
2023-05-12T23:53:04.504Z,99.90
2023-05-12T23:58:07.076Z,99.90
